Ana Sayfa
METAR-TAF:

METAR-TAF

Havaalanları :

Mullan Pass Vor, Idaho, Amerika Birleşik Devletleri

Enlem: 47-27-15N, Boylam: 115-40-11W, yükseklik: 1829 m

Güncel hava durumu gözlemi

Rapor saat 07:53 UTC de 46 dakika önce yapıldı.
Rüzgar değişken yönden 3 kt
Sıcaklık -2°C
Nem 93%
Basınç 1012 hPa
Görüş mesafesi: 16.1 km
800 ft yükseklikte parçalı çok bulutlu
1800 ft yükseklikte parçalı çok bulutlu
12000 ft yükseklikte çok bulutlu

METAR: KMLP 070753Z AUTO VRB03KT 10SM BKN008 BKN018 OVC120 M02/M03 A2987 RMK AO2 SLP089 T10171028 400061022

Saat: 00:39 (08:39 UTC)


TAF: eksik

4.000'den fazla havaalanı için hava durumu gözlemleri ve tahminleri (METAR ve TAF raporları).

Kullanılabilir istasyonlar harita üzerinde sarı ve kırmızı noktalarla gösterilir.

İstasyonun adını görmek için fareyi noktanın üzerinde gezdirin.

Sonrasında hava gözlem ve tahminlerini görmek için tıklayın.

Haritayı değiştirmek için: yaklaştırmak için siyah artı işaretli yeşil düğmeye ve uzaklaştırmak için de eksi işaretli düğmeye hızla tıklayın; bitişik haritalar için yeşil okları kullanın.


METAR-TAF: